Time;durP1;ratioP1;P1;durP2;ratioP2;P2;SDS_P1;SDS_P2;PMS_P1;PMS_P2;Temp;Humidity;BMP_temperature;BMP_pressure;BME280_temperature;BME280_humidity;BME280_pressure;Samples;Min_cycle;Max_cycle;Signal;HPM_P1;HPM_P2
2023/06/13 00:01:01;;;;;;;3.92;2.17;;;;;;;24.89;58.84;98805.50;4957428;29;20427;-76
2023/06/13 00:03:29;;;;;;;4.40;2.42;;;;;;;24.90;58.56;98801.00;4957465;29;20446;-75
2023/06/13 00:05:55;;;;;;;5.43;2.42;;;;;;;24.89;58.67;98808.16;4957354;29;20103;-75
2023/06/13 00:08:21;;;;;;;3.90;2.10;;;;;;;24.89;58.74;98804.66;4956835;29;20027;-75
2023/06/13 00:10:50;;;;;;;3.75;2.15;;;;;;;24.90;58.93;98801.84;4957128;29;20107;-75
2023/06/13 00:13:17;;;;;;;4.78;2.05;;;;;;;24.88;58.96;98803.81;4956747;29;20023;-76
2023/06/13 00:15:57;;;;;;;4.13;2.30;;;;;;;24.88;58.66;98802.94;4957205;29;20027;-76
2023/06/13 00:18:23;;;;;;;4.93;2.38;;;;;;;24.88;59.04;98800.28;4939913;29;20502;-75
2023/06/13 00:20:50;;;;;;;5.43;2.20;;;;;;;24.90;58.61;98785.81;4957126;29;20031;-75
2023/06/13 00:23:16;;;;;;;3.90;1.90;;;;;;;24.86;58.56;98784.44;4957208;29;20027;-75
2023/06/13 00:25:42;;;;;;;4.35;2.20;;;;;;;24.86;58.75;98779.09;4956857;29;20395;-76
2023/06/13 00:28:08;;;;;;;4.07;2.22;;;;;;;24.84;58.94;98781.03;4957077;29;20027;-75
2023/06/13 00:30:33;;;;;;;3.92;2.17;;;;;;;24.88;58.74;98777.13;4956948;29;20476;-75
2023/06/13 00:32:59;;;;;;;4.72;1.98;;;;;;;24.86;58.82;98778.22;4956813;28;20114;-75
2023/06/13 00:35:25;;;;;;;4.53;2.08;;;;;;;24.82;58.89;98777.66;4956895;29;20023;-75
2023/06/13 00:37:54;;;;;;;3.83;2.40;;;;;;;24.85;58.96;98771.22;4956542;29;20031;-75
2023/06/13 00:40:21;;;;;;;3.10;1.90;;;;;;;24.86;58.64;98778.22;4956906;29;20071;-75
2023/06/13 00:42:46;;;;;;;2.75;1.58;;;;;;;24.84;58.66;98778.34;4956800;29;20023;-76
2023/06/13 00:45:33;;;;;;;3.50;2.00;;;;;;;24.84;58.59;98774.88;4955786;28;20031;-75
2023/06/13 00:48:03;;;;;;;3.85;1.90;;;;;;;24.86;58.80;98776.41;4956567;29;20031;-75
2023/06/13 00:50:35;;;;;;;4.47;2.10;;;;;;;24.84;58.79;98775.69;4956359;29;20035;-75
2023/06/13 00:53:10;;;;;;;3.70;2.08;;;;;;;24.83;58.76;98774.00;4937610;29;20020;-75
2023/06/13 00:55:36;;;;;;;3.53;1.88;;;;;;;24.83;58.63;98774.00;4937383;29;20063;-76
2023/06/13 00:58:06;;;;;;;3.47;2.03;;;;;;;24.81;58.78;98767.97;4937394;29;20063;-75
2023/06/13 01:00:33;;;;;;;3.88;2.10;;;;;;;24.82;58.59;98756.31;4937285;29;20035;-76
2023/06/13 01:02:59;;;;;;;3.35;1.77;;;;;;;24.82;58.67;98761.66;4952219;29;20023;-75
2023/06/13 01:05:28;;;;;;;2.65;1.70;;;;;;;24.82;58.80;98755.47;4955635;29;20106;-75
2023/06/13 01:07:57;;;;;;;2.92;2.00;;;;;;;24.78;59.01;98754.84;4955883;29;20023;-76
2023/06/13 01:10:24;;;;;;;3.35;1.83;;;;;;;24.79;58.89;98751.25;4955811;29;20490;-75
2023/06/13 01:13:00;;;;;;;3.00;1.88;;;;;;;24.76;58.65;98746.16;4955910;29;20054;-76
2023/06/13 01:15:32;;;;;;;3.20;1.70;;;;;;;24.78;58.97;98744.19;4956172;29;20048;-75
2023/06/13 01:18:00;;;;;;;3.22;1.73;;;;;;;24.74;58.73;98742.78;4938941;29;20027;-75
2023/06/13 01:20:32;;;;;;;3.83;1.88;;;;;;;24.76;58.88;98748.81;4938473;29;20023;-75
2023/06/13 01:23:06;;;;;;;3.53;1.65;;;;;;;24.75;58.70;98744.47;4956214;29;20015;-75
2023/06/13 01:25:52;;;;;;;2.88;1.73;;;;;;;24.76;58.70;98751.50;4955851;29;20027;-75
2023/06/13 01:28:20;;;;;;;3.20;1.77;;;;;;;24.74;58.78;98750.81;4956050;29;20039;-75
2023/06/13 01:30:47;;;;;;;3.97;1.70;;;;;;;24.73;58.86;98757.09;4955646;28;20035;-75
2023/06/13 01:33:12;;;;;;;3.30;2.00;;;;;;;24.72;58.91;98760.75;4955898;29;20027;-75
2023/06/13 01:35:38;;;;;;;3.05;2.08;;;;;;;24.73;59.03;98759.75;4938028;29;20502;-76
2023/06/13 01:38:04;;;;;;;3.30;1.90;;;;;;;24.70;59.07;98747.56;4955593;29;20082;-76
2023/06/13 01:40:30;;;;;;;3.83;1.92;;;;;;;24.69;58.83;98747.69;4955771;29;20447;-75
2023/06/13 01:42:55;;;;;;;4.65;2.08;;;;;;;24.70;59.01;98747.56;4956074;29;20071;-75
2023/06/13 01:45:23;;;;;;;4.18;1.80;;;;;;;24.71;59.06;98748.38;4938376;29;20098;-75
2023/06/13 01:48:07;;;;;;;2.95;1.92;;;;;;;24.65;59.09;98750.59;4955481;29;20111;-76
2023/06/13 01:50:50;;;;;;;3.53;1.60;;;;;;;24.66;58.87;98746.97;4955169;29;20110;-75
2023/06/13 01:53:16;;;;;;;3.10;1.75;;;;;;;24.64;58.90;98748.94;4955612;29;20095;-76
2023/06/13 01:55:51;;;;;;;3.42;1.80;;;;;;;24.65;59.10;98739.94;4955224;28;20062;-76
2023/06/13 01:58:22;;;;;;;3.97;2.15;;;;;;;24.68;58.95;98738.84;4955415;28;20391;-78
2023/06/13 02:00:57;;;;;;;3.00;1.77;;;;;;;24.64;59.15;98727.59;4955441;29;20023;-75
2023/06/13 02:03:24;;;;;;;2.80;1.67;;;;;;;24.65;58.77;98729.28;4955160;29;20415;-75
2023/06/13 02:05:50;;;;;;;3.15;1.70;;;;;;;24.63;59.15;98723.25;4955248;29;20395;-75
2023/06/13 02:08:16;;;;;;;3.50;2.03;;;;;;;24.64;58.85;98718.72;4954657;29;20103;-75
2023/06/13 02:10:41;;;;;;;3.75;1.90;;;;;;;24.63;58.93;98717.91;4955189;29;20139;-75
2023/06/13 02:13:07;;;;;;;3.13;1.88;;;;;;;24.60;59.13;98704.81;4955104;29;20038;-75
2023/06/13 02:15:32;;;;;;;4.30;2.03;;;;;;;24.60;58.77;98698.66;4954800;29;20015;-75
2023/06/13 02:17:58;;;;;;;3.03;1.70;;;;;;;24.59;58.84;98697.00;4954730;29;20038;-75
2023/06/13 02:20:23;;;;;;;3.53;2.15;;;;;;;24.59;59.16;98687.13;4955157;29;20627;-76
2023/06/13 02:22:48;;;;;;;2.40;1.63;;;;;;;24.59;58.94;98686.31;4954824;29;20027;-75
2023/06/13 02:25:14;;;;;;;4.43;2.28;;;;;;;24.58;59.15;98680.13;4954622;29;20024;-76
2023/06/13 02:27:40;;;;;;;3.35;2.00;;;;;;;24.58;58.83;98676.59;4955105;29;20102;-75
2023/06/13 02:30:08;;;;;;;3.58;1.85;;;;;;;24.55;59.23;98680.38;4954834;29;20062;-76
2023/06/13 02:32:36;;;;;;;3.95;2.13;;;;;;;24.58;58.91;98674.78;4954610;28;20020;-76
2023/06/13 02:35:02;;;;;;;2.78;1.75;;;;;;;24.57;58.66;98667.78;4954683;29;20035;-76
2023/06/13 02:37:27;;;;;;;3.60;2.15;;;;;;;24.57;58.94;98667.78;4954541;29;20041;-75
2023/06/13 02:39:53;;;;;;;2.78;1.60;;;;;;;24.57;58.92;98665.09;4937571;29;20027;-75
2023/06/13 02:42:18;;;;;;;3.22;1.80;;;;;;;24.56;58.86;98665.25;4954252;29;20031;-74
2023/06/13 02:44:44;;;;;;;2.92;1.95;;;;;;;24.54;59.03;98660.03;4954369;29;20035;-75
2023/06/13 02:47:09;;;;;;;3.55;1.75;;;;;;;24.55;58.89;98656.38;4954364;29;20023;-76
2023/06/13 02:49:35;;;;;;;3.95;1.90;;;;;;;24.57;58.72;98650.91;4954672;29;20450;-75
2023/06/13 02:52:00;;;;;;;2.80;1.83;;;;;;;24.54;59.04;98654.69;4954451;29;20039;-76
2023/06/13 02:54:26;;;;;;;3.05;2.20;;;;;;;24.52;58.96;98648.66;4954661;29;20038;-75
2023/06/13 02:56:51;;;;;;;3.97;1.98;;;;;;;24.52;58.95;98643.34;4954082;28;20134;-75
2023/06/13 02:59:17;;;;;;;3.75;1.75;;;;;;;24.51;58.91;98641.66;4954214;29;20044;-75
2023/06/13 03:01:42;;;;;;;3.80;1.85;;;;;;;24.53;58.91;98645.03;4954112;29;20055;-76
2023/06/13 03:04:07;;;;;;;3.92;1.90;;;;;;;24.49;59.28;98644.44;4954543;29;20023;-75
2023/06/13 03:06:33;;;;;;;3.85;1.90;;;;;;;24.48;59.21;98632.09;4954375;29;20388;-75
2023/06/13 03:08:58;;;;;;;3.05;1.90;;;;;;;24.48;59.41;98633.91;4953595;28;20094;-75
2023/06/13 03:11:25;;;;;;;4.07;1.67;;;;;;;24.48;59.24;98631.25;4954334;29;20028;-76
2023/06/13 03:13:50;;;;;;;4.13;2.20;;;;;;;24.50;59.07;98637.31;4954257;29;20035;-74
2023/06/13 03:16:17;;;;;;;3.28;1.73;;;;;;;24.48;59.14;98634.78;4953811;29;20031;-76
2023/06/13 03:18:43;;;;;;;3.58;1.90;;;;;;;24.47;59.30;98642.91;4954184;29;20031;-76
2023/06/13 03:21:08;;;;;;;3.45;1.92;;;;;;;24.47;59.28;98640.22;4954055;29;20027;-75
2023/06/13 03:23:34;;;;;;;3.25;1.95;;;;;;;24.47;59.13;98637.56;4954267;29;20027;-75
2023/06/13 03:26:01;;;;;;;3.80;1.95;;;;;;;24.47;59.05;98633.09;4953949;29;20496;-76
2023/06/13 03:28:27;;;;;;;3.90;2.05;;;;;;;24.47;59.04;98629.56;4953905;29;20034;-75
2023/06/13 03:30:54;;;;;;;3.78;2.30;;;;;;;24.48;59.15;98631.25;4953680;28;20505;-75
2023/06/13 03:33:20;;;;;;;4.22;2.25;;;;;;;24.47;59.03;98627.75;4954153;29;20076;-75
2023/06/13 03:35:45;;;;;;;3.00;1.85;;;;;;;24.44;59.04;98622.69;4954110;29;20199;-75
2023/06/13 03:38:12;;;;;;;3.08;1.88;;;;;;;24.44;58.87;98624.53;4954522;29;20493;-75
2023/06/13 03:40:37;;;;;;;3.17;1.90;;;;;;;24.44;58.96;98619.19;4954079;29;20027;-75
2023/06/13 03:43:03;;;;;;;3.30;1.75;;;;;;;24.40;59.07;98630.13;4954218;29;20034;-75
2023/06/13 03:45:29;;;;;;;3.63;2.03;;;;;;;24.43;59.12;98622.81;4953313;29;20126;-75
2023/06/13 03:47:54;;;;;;;3.13;1.88;;;;;;;24.42;58.85;98621.13;4953731;29;20082;-76
2023/06/13 03:50:20;;;;;;;4.45;2.00;;;;;;;24.38;58.87;98621.41;4953359;29;20031;-75
2023/06/13 03:52:45;;;;;;;4.38;1.73;;;;;;;24.39;59.04;98615.09;4953952;29;20030;-75
2023/06/13 03:55:11;;;;;;;3.67;1.60;;;;;;;24.40;58.91;98618.59;4953856;29;20039;-76
2023/06/13 03:57:36;;;;;;;4.65;2.30;;;;;;;24.38;59.08;98621.41;4953777;29;20047;-75
2023/06/13 04:00:05;;;;;;;3.47;1.90;;;;;;;24.40;59.14;98621.25;4953507;29;20055;-76
2023/06/13 04:02:30;;;;;;;3.22;1.63;;;;;;;24.40;58.88;98635.44;4954003;29;20035;-75
2023/06/13 04:04:56;;;;;;;4.03;1.67;;;;;;;24.42;58.83;98637.13;4953781;29;20406;-75
2023/06/13 04:07:22;;;;;;;2.90;1.63;;;;;;;24.39;59.06;98633.75;4953645;29;20023;-74
2023/06/13 04:09:48;;;;;;;2.95;1.73;;;;;;;24.38;59.29;98636.56;4953922;29;20086;-75
2023/06/13 04:12:14;;;;;;;2.70;2.00;;;;;;;24.38;59.05;98647.22;4953598;29;20027;-75
2023/06/13 04:14:40;;;;;;;3.53;1.98;;;;;;;24.36;59.03;98649.19;4953263;29;20038;-75
2023/06/13 04:17:06;;;;;;;3.60;1.65;;;;;;;24.35;59.12;98648.34;4953643;29;20027;-75
2023/06/13 04:19:32;;;;;;;3.35;1.80;;;;;;;24.35;59.00;98648.34;4953328;28;20027;-75
2023/06/13 04:21:59;;;;;;;3.10;1.83;;;;;;;24.35;58.90;98647.50;4939266;29;20367;-77
2023/06/13 04:24:25;;;;;;;3.72;1.77;;;;;;;24.34;58.78;98656.47;4957069;29;20028;-75
2023/06/13 04:26:51;;;;;;;3.03;1.60;;;;;;;24.34;58.82;98659.13;4957487;29;20035;-75
2023/06/13 04:29:18;;;;;;;3.63;2.13;;;;;;;24.34;59.24;98652.00;4956762;29;20050;-75
2023/06/13 04:31:45;;;;;;;3.33;2.00;;;;;;;24.33;58.87;98662.78;4956975;28;20051;-75
2023/06/13 04:34:11;;;;;;;3.63;2.10;;;;;;;24.32;59.15;98661.97;4956792;29;20039;-75
2023/06/13 04:36:41;;;;;;;3.80;1.90;;;;;;;24.32;58.95;98663.75;4956850;29;20035;-75
2023/06/13 04:39:07;;;;;;;3.40;1.88;;;;;;;24.32;59.03;98669.09;4956522;29;20488;-75
2023/06/13 04:41:37;;;;;;;3.95;2.08;;;;;;;24.31;59.13;98673.56;4956933;29;20074;-75
2023/06/13 04:44:05;;;;;;;4.07;1.88;;;;;;;24.30;58.74;98677.22;4939119;29;20035;-75
2023/06/13 04:46:33;;;;;;;3.70;2.08;;;;;;;24.30;59.02;98687.88;4956822;29;20035;-75
2023/06/13 04:48:58;;;;;;;3.05;1.88;;;;;;;24.30;58.94;98687.06;4957098;29;20110;-75
2023/06/13 04:51:27;;;;;;;3.40;1.88;;;;;;;24.25;58.80;98696.28;4956818;29;20429;-76
2023/06/13 04:53:57;;;;;;;3.97;1.80;;;;;;;24.27;59.21;98701.50;4956760;29;20491;-74
2023/06/13 04:56:24;;;;;;;4.20;2.13;;;;;;;24.30;59.07;98703.06;4956432;29;20496;-75
2023/06/13 04:58:51;;;;;;;3.85;1.95;;;;;;;24.28;58.89;98700.50;4956313;29;20070;-75
2023/06/13 05:01:17;;;;;;;3.00;1.75;;;;;;;24.29;59.18;98702.19;4956207;29;20027;-75
2023/06/13 05:03:43;;;;;;;4.07;1.60;;;;;;;24.30;58.90;98709.22;4956448;29;20031;-75
2023/06/13 05:06:08;;;;;;;2.95;1.67;;;;;;;24.30;58.87;98701.22;4940095;29;20035;-75
2023/06/13 05:08:34;;;;;;;4.57;1.98;;;;;;;24.29;59.02;98706.66;4956348;29;20023;-75
2023/06/13 05:11:00;;;;;;;3.08;1.67;;;;;;;24.27;58.82;98707.66;4956586;29;20385;-75
2023/06/13 05:13:25;;;;;;;5.82;2.00;;;;;;;24.25;58.76;98706.09;4955567;29;20544;-76
2023/06/13 05:15:51;;;;;;;3.20;1.95;;;;;;;24.24;58.76;98705.28;4955461;28;20090;-76
2023/06/13 05:18:17;;;;;;;3.05;1.67;;;;;;;24.24;59.25;98709.75;4956241;29;20094;-75
2023/06/13 05:20:43;;;;;;;5.00;2.00;;;;;;;24.26;59.12;98707.81;4956080;29;20038;-76
2023/06/13 05:23:10;;;;;;;3.88;1.92;;;;;;;24.24;58.80;98715.06;4955736;29;20038;-75
2023/06/13 05:25:36;;;;;;;3.03;1.75;;;;;;;24.23;58.74;98714.25;4956159;29;20027;-75
2023/06/13 05:28:02;;;;;;;2.75;1.65;;;;;;;24.24;58.74;98725.75;4955753;29;20511;-75
2023/06/13 05:30:27;;;;;;;3.05;1.80;;;;;;;24.23;59.01;98724.91;4956406;29;20531;-75
2023/06/13 05:32:53;;;;;;;3.80;1.95;;;;;;;24.22;58.71;98715.22;4955233;28;20032;-76
2023/06/13 05:35:19;;;;;;;3.33;1.80;;;;;;;24.21;58.82;98716.19;4955760;29;20498;-77
2023/06/13 05:37:44;;;;;;;3.25;1.77;;;;;;;24.21;58.74;98710.03;4938825;29;20035;-76
2023/06/13 05:40:10;;;;;;;4.28;1.83;;;;;;;24.23;58.77;98711.59;4955882;29;20054;-75
2023/06/13 05:42:37;;;;;;;3.95;1.98;;;;;;;24.22;58.69;98717.03;4955291;29;20047;-75
2023/06/13 05:45:06;;;;;;;3.25;1.90;;;;;;;24.18;58.77;98711.13;4956203;28;20483;-76
2023/06/13 05:47:32;;;;;;;3.30;1.58;;;;;;;24.19;58.73;98707.50;4955597;28;20035;-75
2023/06/13 05:49:58;;;;;;;4.57;1.88;;;;;;;24.17;59.18;98711.25;4955753;28;20082;-76
2023/06/13 05:52:25;;;;;;;5.22;2.20;;;;;;;24.19;58.78;98706.63;4955649;28;20380;-75
2023/06/13 05:54:50;;;;;;;3.97;1.73;;;;;;;24.20;58.73;98710.97;4954694;28;20398;-75
2023/06/13 05:57:15;;;;;;;3.63;2.00;;;;;;;24.18;58.85;98705.81;4955281;28;20067;-76
2023/06/13 05:59:41;;;;;;;3.10;1.77;;;;;;;24.13;59.18;98703.53;4955543;29;20023;-75
2023/06/13 06:02:09;;;;;;;3.75;1.95;;;;;;;24.16;58.85;98701.59;4955338;29;20063;-75
2023/06/13 06:04:35;;;;;;;3.15;1.60;;;;;;;24.15;59.06;98710.56;4955085;29;20035;-76
2023/06/13 06:07:00;;;;;;;3.35;1.77;;;;;;;24.15;59.02;98710.56;4955543;29;20026;-75
2023/06/13 06:09:25;;;;;;;3.53;2.05;;;;;;;24.17;59.01;98713.94;4937675;29;20503;-75
2023/06/13 06:11:52;;;;;;;4.35;2.25;;;;;;;24.16;58.75;98709.59;4937917;29;20158;-75
2023/06/13 06:14:17;;;;;;;4.35;2.20;;;;;;;24.16;58.89;98712.25;4955184;29;20487;-76
2023/06/13 06:16:42;;;;;;;3.05;1.60;;;;;;;24.13;58.79;98708.84;4955161;29;20031;-74
2023/06/13 06:19:08;;;;;;;3.80;1.92;;;;;;;24.17;58.97;98708.59;4955123;29;20019;-75
2023/06/13 06:21:33;;;;;;;3.25;2.03;;;;;;;24.17;58.82;98703.28;4954962;29;20019;-76
2023/06/13 06:23:59;;;;;;;3.08;1.70;;;;;;;24.19;58.73;98712.81;4954741;29;20436;-75
2023/06/13 06:26:26;;;;;;;4.28;2.15;;;;;;;24.17;58.88;98713.94;4954898;29;20452;-75
2023/06/13 06:28:52;;;;;;;4.10;2.00;;;;;;;24.17;58.76;98705.94;4954866;29;20027;-75
2023/06/13 06:31:17;;;;;;;3.70;1.88;;;;;;;24.15;58.76;98710.56;4954815;28;20033;-75
2023/06/13 06:33:43;;;;;;;6.97;2.10;;;;;;;24.18;59.02;98711.13;4954901;29;20026;-75
2023/06/13 06:36:08;;;;;;;3.53;1.83;;;;;;;24.19;58.54;98717.28;4958454;28;20066;-75
2023/06/13 06:38:33;;;;;;;3.78;2.08;;;;;;;24.19;58.60;98718.16;4971144;28;20041;-75
2023/06/13 06:40:59;;;;;;;4.63;1.95;;;;;;;24.20;58.88;98716.31;4954456;29;20038;-75
2023/06/13 06:43:24;;;;;;;3.30;1.80;;;;;;;24.18;58.73;98713.81;4941441;28;20023;-74
2023/06/13 06:45:50;;;;;;;4.30;2.10;;;;;;;24.17;59.01;98713.94;4942102;28;20035;-75
2023/06/13 06:48:16;;;;;;;5.13;1.80;;;;;;;24.20;58.82;98724.31;4954300;29;20094;-75
2023/06/13 06:50:42;;;;;;;3.47;1.83;;;;;;;24.23;58.77;98724.06;4954176;29;20028;-75
2023/06/13 06:53:07;;;;;;;4.45;2.00;;;;;;;24.20;58.94;98718.97;4954108;29;20031;-75
2023/06/13 06:55:32;;;;;;;4.35;2.03;;;;;;;24.23;58.81;98718.72;4954142;29;20464;-75
2023/06/13 06:57:58;;;;;;;3.85;2.10;;;;;;;24.22;58.77;98717.03;4954410;29;20095;-75
2023/06/13 07:00:23;;;;;;;4.93;2.22;;;;;;;24.20;58.54;98718.97;4954383;29;20114;-75
2023/06/13 07:02:49;;;;;;;5.80;2.10;;;;;;;24.19;58.70;98718.16;4953967;29;20038;-75
2023/06/13 07:05:15;;;;;;;3.67;2.20;;;;;;;24.17;58.92;98721.94;4954065;29;20031;-76
2023/06/13 07:07:42;;;;;;;3.78;2.00;;;;;;;24.18;58.61;98727.13;4952449;29;20035;-75
2023/06/13 07:10:09;;;;;;;3.90;1.95;;;;;;;24.19;58.77;98722.63;4954108;28;20081;-78
2023/06/13 07:12:36;;;;;;;5.05;2.15;;;;;;;24.19;58.92;98722.63;4953970;28;20498;-76
2023/06/13 07:15:02;;;;;;;4.53;1.80;;;;;;;24.17;59.16;98722.78;4953815;28;20102;-76
2023/06/13 07:17:29;;;;;;;3.70;2.00;;;;;;;24.20;58.81;98718.97;4958474;29;20027;-83
2023/06/13 07:19:54;;;;;;;4.32;1.90;;;;;;;24.21;58.81;98726.03;4954148;29;20059;-78
2023/06/13 07:22:19;;;;;;;3.97;2.03;;;;;;;24.19;58.83;98727.97;4953602;29;20098;-78
2023/06/13 07:24:45;;;;;;;4.03;2.17;;;;;;;24.21;59.02;98728.69;4953162;29;20054;-78
2023/06/13 07:27:11;;;;;;;3.55;1.90;;;;;;;24.18;59.11;98721.81;4954398;29;20027;-77
2023/06/13 07:29:36;;;;;;;5.20;2.20;;;;;;;24.19;59.08;98722.63;4953685;29;20023;-72
2023/06/13 07:32:02;;;;;;;5.38;2.13;;;;;;;24.21;58.83;98726.03;4936501;29;20031;-74
2023/06/13 07:34:27;;;;;;;5.22;1.90;;;;;;;24.23;59.09;98721.41;4953865;29;20027;-73
2023/06/13 07:36:56;;;;;;;3.92;2.00;;;;;;;24.24;59.06;98725.75;4953563;29;20106;-74
2023/06/13 07:39:21;;;;;;;3.80;2.10;;;;;;;24.25;59.19;98722.09;4953941;29;20031;-74
2023/06/13 07:41:49;;;;;;;5.47;2.00;;;;;;;24.27;58.66;98714.81;4936469;29;20446;-74
2023/06/13 07:44:15;;;;;;;4.68;2.05;;;;;;;24.29;58.67;98720.00;4955369;28;20030;-74
2023/06/13 07:46:41;;;;;;;3.17;1.70;;;;;;;24.31;58.52;98718.88;4970491;28;20030;-72
2023/06/13 07:49:06;;;;;;;3.75;2.13;;;;;;;24.29;58.77;98723.53;4973192;28;20102;-74
2023/06/13 07:51:32;;;;;;;3.67;1.90;;;;;;;24.31;58.52;98720.72;4952263;28;20023;-74
2023/06/13 07:53:57;;;;;;;4.32;2.30;;;;;;;24.31;58.75;98718.88;4962744;28;20114;-74
2023/06/13 07:56:23;;;;;;;4.15;2.10;;;;;;;24.30;58.81;98717.22;4956116;28;20126;-74
2023/06/13 07:58:48;;;;;;;4.00;2.30;;;;;;;24.30;58.68;98711.88;4957553;29;20387;-74
2023/06/13 08:01:14;;;;;;;3.65;2.08;;;;;;;24.33;58.75;98719.63;4940169;29;20031;-74
2023/06/13 08:03:39;;;;;;;4.55;2.10;;;;;;;24.31;58.67;98729.56;4957689;29;20031;-74
2023/06/13 08:06:05;;;;;;;5.78;2.13;;;;;;;24.33;58.79;98727.63;4956783;29;20464;-75
2023/06/13 08:08:30;;;;;;;3.63;1.90;;;;;;;24.35;58.79;98723.00;4957163;29;20106;-74
2023/06/13 08:10:56;;;;;;;3.30;1.92;;;;;;;24.36;58.57;98729.19;4957550;28;20027;-75
2023/06/13 08:13:22;;;;;;;4.18;2.10;;;;;;;24.38;58.70;98728.06;4957253;28;20042;-75
2023/06/13 08:15:48;;;;;;;5.60;2.03;;;;;;;24.39;58.38;98729.75;4956733;28;20031;-74
2023/06/13 08:18:14;;;;;;;4.35;2.20;;;;;;;24.43;58.44;98734.81;4957088;29;20038;-75
2023/06/13 08:20:40;;;;;;;3.90;2.10;;;;;;;24.44;58.48;98736.50;4955462;28;20064;-74
2023/06/13 08:23:05;;;;;;;4.38;1.90;;;;;;;24.43;58.72;98741.00;4957249;29;20015;-75
2023/06/13 08:25:31;;;;;;;3.28;1.77;;;;;;;24.42;58.37;98735.78;4939653;29;20450;-74
2023/06/13 08:27:56;;;;;;;4.38;2.03;;;;;;;24.42;58.50;98731.31;4957133;29;20031;-75
2023/06/13 08:30:21;;;;;;;3.13;1.73;;;;;;;24.44;58.43;98741.84;4957192;29;20482;-75
2023/06/13 08:32:52;;;;;;;2.97;1.65;;;;;;;24.43;58.36;98737.47;4956752;28;20031;-74
2023/06/13 08:35:18;;;;;;;3.58;1.73;;;;;;;24.45;58.57;98738.19;4956498;29;20032;-74
2023/06/13 08:37:43;;;;;;;4.78;2.10;;;;;;;24.45;58.09;98738.19;4956924;29;20034;-75
2023/06/13 08:40:10;;;;;;;3.78;1.77;;;;;;;24.45;58.28;98732.88;4956904;29;20031;-75
2023/06/13 08:42:39;;;;;;;3.30;1.60;;;;;;;24.46;58.12;98734.53;4956613;29;20532;-75
2023/06/13 08:45:07;;;;;;;3.45;1.80;;;;;;;24.46;58.26;98732.72;4956726;29;20069;-75
2023/06/13 08:47:33;;;;;;;3.42;1.70;;;;;;;24.46;58.27;98729.22;4956690;29;20031;-74
2023/06/13 08:50:00;;;;;;;3.58;1.90;;;;;;;24.46;58.20;98729.22;4956484;29;20046;-74
2023/06/13 08:52:34;;;;;;;3.85;1.90;;;;;;;24.46;58.47;98739.88;4956699;29;20031;-74
2023/06/13 08:55:03;;;;;;;4.43;1.63;;;;;;;24.47;58.19;98730.91;4956857;29;20042;-75
2023/06/13 08:57:31;;;;;;;3.80;1.98;;;;;;;24.47;58.14;98733.56;4956555;28;20530;-75
2023/06/13 08:59:57;;;;;;;4.00;2.08;;;;;;;24.46;58.44;98718.53;4956402;28;20537;-75
2023/06/13 09:02:24;;;;;;;3.70;1.70;;;;;;;24.48;58.27;98721.91;4956282;29;20546;-75
2023/06/13 09:04:51;;;;;;;3.70;1.70;;;;;;;24.48;58.24;98716.59;4956182;29;20215;-75
2023/06/13 09:07:17;;;;;;;4.38;2.05;;;;;;;24.49;58.12;98720.94;4955377;28;20027;-75
2023/06/13 09:09:44;;;;;;;3.35;1.77;;;;;;;24.49;58.19;98723.59;4956619;29;20492;-74
2023/06/13 09:12:12;;;;;;;3.75;1.80;;;;;;;24.50;58.18;98711.97;4956296;29;20399;-75
2023/06/13 09:14:39;;;;;;;2.92;1.70;;;;;;;24.51;58.31;98721.66;4956262;29;20400;-75
2023/06/13 09:17:05;;;;;;;4.78;2.30;;;;;;;24.50;58.29;98719.97;4937210;29;20031;-74
2023/06/13 09:19:31;;;;;;;3.33;1.70;;;;;;;24.50;58.13;98725.31;4936709;29;20515;-75
2023/06/13 09:21:57;;;;;;;3.17;1.70;;;;;;;24.49;57.93;98719.13;4937102;29;20035;-75
2023/06/13 09:24:26;;;;;;;3.83;2.38;;;;;;;24.51;58.30;98716.31;4936928;29;20028;-74
2023/06/13 09:26:51;;;;;;;3.10;1.88;;;;;;;24.53;58.14;98719.69;4936820;29;20028;-75
2023/06/13 09:29:17;;;;;;;4.32;1.90;;;;;;;24.50;58.24;98707.47;4936809;29;20027;-74
2023/06/13 09:31:42;;;;;;;4.35;2.20;;;;;;;24.50;58.10;98709.31;4945281;28;20015;-75
2023/06/13 09:34:07;;;;;;;3.25;1.85;;;;;;;24.52;58.16;98702.88;4955497;29;20031;-75
2023/06/13 09:36:37;;;;;;;4.07;1.92;;;;;;;24.51;58.24;98711.00;4955848;29;20042;-75
2023/06/13 09:39:06;;;;;;;3.35;1.83;;;;;;;24.50;58.16;98698.66;4955582;29;20046;-75
2023/06/13 09:41:32;;;;;;;3.40;2.03;;;;;;;24.50;58.19;98709.31;4953018;29;20034;-74
2023/06/13 09:44:03;;;;;;;3.90;1.60;;;;;;;24.50;58.17;98710.13;4954568;29;20395;-74
2023/06/13 09:46:28;;;;;;;3.08;1.75;;;;;;;24.51;58.33;98701.16;4955618;29;20113;-74
2023/06/13 09:48:53;;;;;;;3.65;1.88;;;;;;;24.50;58.37;98702.13;4955188;28;20145;-75
2023/06/13 09:51:21;;;;;;;3.00;1.90;;;;;;;24.50;58.00;98703.97;4955559;28;20031;-74
2023/06/13 09:53:49;;;;;;;3.88;2.28;;;;;;;24.51;58.06;98700.31;4955613;29;20031;-74
2023/06/13 09:56:15;;;;;;;4.28;2.55;;;;;;;24.51;58.46;98692.31;4955340;28;20138;-74
2023/06/13 09:58:41;;;;;;;3.38;2.05;;;;;;;24.53;58.34;98698.34;4936328;29;20030;-74
2023/06/13 10:01:15;;;;;;;4.05;2.30;;;;;;;24.53;58.22;98693.03;4936338;29;20433;-74
2023/06/13 10:03:41;;;;;;;3.17;2.08;;;;;;;24.55;58.01;98693.72;4936117;29;20508;-74
2023/06/13 10:06:07;;;;;;;3.92;2.30;;;;;;;24.57;58.14;98694.44;4936193;29;20090;-74
2023/06/13 10:08:34;;;;;;;3.47;2.28;;;;;;;24.58;58.24;98674.78;4936119;29;20428;-74
2023/06/13 10:11:06;;;;;;;4.25;2.53;;;;;;;24.61;57.88;98679.00;4936057;29;20044;-74
2023/06/13 10:13:42;;;;;;;4.80;2.00;;;;;;;24.62;57.94;98670.03;4935946;29;20063;-74
2023/06/13 10:16:10;;;;;;;3.88;2.50;;;;;;;24.64;57.73;98663.56;4935591;29;20472;-74
2023/06/13 10:18:41;;;;;;;4.15;2.42;;;;;;;24.65;57.87;98665.25;4945918;28;20126;-74
2023/06/13 10:21:10;;;;;;;3.70;2.10;;;;;;;24.69;57.92;98665.00;4955013;29;20110;-74
2023/06/13 10:23:43;;;;;;;3.83;2.42;;;;;;;24.69;57.71;98659.66;4954934;29;20037;-74
2023/06/13 10:26:15;;;;;;;3.67;2.20;;;;;;;24.71;57.92;98652.34;4954682;29;20049;-74
2023/06/13 10:28:50;;;;;;;3.75;2.55;;;;;;;24.71;57.91;98652.34;4954904;29;20039;-74
2023/06/13 10:31:28;;;;;;;4.25;2.50;;;;;;;24.71;58.08;98653.22;4954492;28;20440;-74
2023/06/13 10:33:54;;;;;;;3.83;2.20;;;;;;;24.73;58.03;98661.06;4954696;29;20039;-74
2023/06/13 10:36:31;;;;;;;3.50;2.30;;;;;;;24.73;57.91;98661.06;4937360;29;20027;-74
2023/06/13 10:39:14;;;;;;;3.15;1.98;;;;;;;24.77;57.61;98662.47;4954549;29;20031;-74
2023/06/13 10:41:40;;;;;;;3.75;2.15;;;;;;;24.77;57.88;98659.81;4954626;29;20443;-74
2023/06/13 10:44:08;;;;;;;5.00;2.42;;;;;;;24.78;57.77;98664.16;4954460;29;20024;-74
2023/06/13 10:46:34;;;;;;;3.97;2.47;;;;;;;24.79;57.56;98660.53;4954180;29;20031;-74
2023/06/13 10:49:00;;;;;;;4.22;2.35;;;;;;;24.79;57.84;98660.53;4954746;28;20037;-74
2023/06/13 10:51:29;;;;;;;4.07;2.47;;;;;;;24.79;57.75;98656.03;4954492;28;20045;-74
2023/06/13 10:54:06;;;;;;;5.20;2.58;;;;;;;24.81;57.83;98653.25;4954236;28;20034;-74
2023/06/13 10:56:33;;;;;;;4.03;2.20;;;;;;;24.82;57.94;98644.25;4954105;28;20051;-75
2023/06/13 10:59:14;;;;;;;4.50;2.55;;;;;;;24.84;57.62;98654.81;4953073;29;20456;-75
2023/06/13 11:01:41;;;;;;;4.55;2.65;;;;;;;24.84;57.41;98650.28;4954365;28;20024;-74
2023/06/13 11:04:09;;;;;;;3.40;2.33;;;;;;;24.86;57.52;98650.16;4954367;29;20046;-75
2023/06/13 11:06:35;;;;;;;4.05;2.45;;;;;;;24.86;57.42;98645.69;4937202;29;20034;-74
2023/06/13 11:09:26;;;;;;;4.30;2.28;;;;;;;24.86;57.46;98639.47;4954385;29;20028;-75
2023/06/13 11:11:56;;;;;;;3.35;2.25;;;;;;;24.88;57.84;98642.84;4954169;29;20078;-74
2023/06/13 11:14:23;;;;;;;3.10;2.10;;;;;;;24.88;57.57;98638.38;4953722;29;20031;-75
2023/06/13 11:16:49;;;;;;;3.25;2.45;;;;;;;24.88;57.78;98638.38;4953120;29;20398;-75
2023/06/13 11:19:23;;;;;;;5.10;2.80;;;;;;;24.89;57.42;98640.03;4954242;29;20027;-74
2023/06/13 11:22:05;;;;;;;4.13;2.80;;;;;;;24.89;57.49;98641.88;4954296;29;20024;-74
2023/06/13 11:24:35;;;;;;;5.07;2.70;;;;;;;24.90;57.50;98641.72;4953962;29;20554;-74
2023/06/13 11:27:01;;;;;;;4.82;2.65;;;;;;;24.91;57.71;98640.78;4954185;29;20035;-74
2023/06/13 11:29:28;;;;;;;4.93;2.63;;;;;;;24.92;57.90;98638.94;4953183;29;20031;-74
2023/06/13 11:31:54;;;;;;;4.60;2.72;;;;;;;24.93;57.62;98640.59;4953843;28;20023;-74
2023/06/13 11:34:38;;;;;;;4.85;2.55;;;;;;;24.93;57.55;98640.59;4954146;29;20027;-74